createdAt,value
2022-10-06T00:00:06.253Z,74.62
2022-10-06T00:02:35.736Z,73.86
2022-10-06T00:05:02.399Z,74.04
2022-10-06T00:07:28.974Z,74.94
2022-10-06T00:09:55.471Z,74.93
2022-10-06T00:12:22.085Z,74.99
2022-10-06T00:14:48.576Z,74.97
2022-10-06T00:17:15.113Z,74.73
2022-10-06T00:19:41.642Z,74.59
2022-10-06T00:22:08.199Z,75.73
2022-10-06T00:24:35.077Z,75.86
2022-10-06T00:27:01.984Z,74.73
2022-10-06T00:29:28.552Z,75.23
2022-10-06T00:31:55.236Z,75.95
2022-10-06T00:34:21.764Z,75.25
2022-10-06T00:36:51.168Z,76.06
2022-10-06T00:39:17.890Z,75.34
2022-10-06T00:41:44.426Z,75.35
2022-10-06T00:44:11.031Z,75.60
2022-10-06T00:46:47.866Z,75.23
2022-10-06T00:49:30.645Z,74.84
2022-10-06T00:52:14.169Z,74.85
2022-10-06T00:54:41.489Z,73.98
2022-10-06T00:57:09.025Z,74.67
2022-10-06T00:59:37.573Z,74.22
2022-10-06T01:02:18.125Z,73.88
2022-10-06T01:04:48.171Z,74.00
2022-10-06T01:07:17.281Z,74.33
2022-10-06T01:09:44.702Z,74.53
2022-10-06T01:12:14.238Z,74.63
2022-10-06T01:14:41.852Z,74.85
2022-10-06T01:17:21.218Z,75.17
2022-10-06T01:19:54.847Z,74.18
2022-10-06T01:22:35.516Z,74.66
2022-10-06T01:25:04.632Z,74.41
2022-10-06T01:27:33.563Z,75.08
2022-10-06T01:30:01.778Z,75.04
2022-10-06T01:32:34.163Z,74.48
2022-10-06T01:35:01.004Z,74.61
2022-10-06T01:37:28.597Z,74.59
2022-10-06T01:39:55.250Z,74.68
2022-10-06T01:42:23.349Z,74.26
2022-10-06T01:44:49.988Z,74.97
2022-10-06T01:47:16.653Z,75.09
2022-10-06T01:49:43.436Z,74.68
2022-10-06T01:52:11.033Z,74.55
2022-10-06T01:54:37.692Z,74.46
2022-10-06T01:57:06.595Z,75.01
2022-10-06T01:59:33.284Z,75.58
2022-10-06T02:02:01.128Z,75.53
2022-10-06T02:04:27.823Z,74.67
2022-10-06T02:06:55.574Z,74.29
2022-10-06T02:09:23.399Z,75.09
2022-10-06T02:11:50.522Z,75.07
2022-10-06T02:14:18.134Z,74.76
2022-10-06T02:16:45.451Z,73.85
2022-10-06T02:19:12.391Z,73.93
2022-10-06T02:21:40.122Z,74.48
2022-10-06T02:24:09.563Z,73.90
2022-10-06T02:26:36.691Z,74.40
2022-10-06T02:29:03.518Z,75.06
2022-10-06T02:31:30.190Z,74.67
2022-10-06T02:33:57.361Z,74.59
2022-10-06T02:36:24.466Z,74.65
2022-10-06T02:38:51.132Z,74.69
2022-10-06T02:41:18.599Z,73.97
2022-10-06T02:43:46.520Z,74.38
2022-10-06T02:46:15.005Z,74.04
2022-10-06T02:48:47.408Z,74.24
2022-10-06T02:51:17.057Z,73.99
2022-10-06T02:53:48.134Z,74.31
2022-10-06T02:56:20.177Z,73.83
2022-10-06T02:58:50.527Z,74.12
2022-10-06T03:01:25.637Z,74.17
2022-10-06T03:03:54.602Z,74.08
2022-10-06T03:06:23.781Z,74.11
2022-10-06T03:09:03.634Z,73.99
2022-10-06T03:11:36.702Z,74.81
2022-10-06T03:14:05.947Z,74.75
2022-10-06T03:16:33.850Z,73.85
2022-10-06T03:19:03.510Z,74.14
2022-10-06T03:21:36.941Z,74.21
2022-10-06T03:24:04.222Z,74.24
2022-10-06T03:26:36.204Z,74.53
2022-10-06T03:29:05.918Z,74.21
2022-10-06T03:31:35.572Z,74.17
2022-10-06T03:34:02.589Z,74.34
2022-10-06T03:36:34.746Z,75.01
2022-10-06T03:39:03.994Z,75.06
2022-10-06T03:41:34.595Z,75.33
2022-10-06T03:44:02.181Z,75.38
2022-10-06T03:46:33.228Z,75.40
2022-10-06T03:49:01.703Z,75.53
2022-10-06T03:51:35.814Z,75.04
2022-10-06T03:54:03.134Z,74.84
2022-10-06T03:56:36.806Z,74.40
2022-10-06T03:59:07.404Z,74.27
2022-10-06T04:01:40.246Z,74.75
2022-10-06T04:04:09.285Z,74.66
2022-10-06T04:06:38.140Z,74.49
2022-10-06T04:09:13.976Z,75.11
2022-10-06T04:11:43.458Z,74.90
2022-10-06T04:14:13.736Z,75.04
2022-10-06T04:17:01.513Z,74.29
2022-10-06T04:19:31.827Z,74.51
2022-10-06T04:21:59.002Z,74.12
2022-10-06T04:24:26.167Z,74.46
2022-10-06T04:26:53.210Z,74.18
2022-10-06T04:29:21.240Z,74.42
2022-10-06T04:31:52.673Z,74.24
2022-10-06T04:34:31.090Z,74.39
2022-10-06T04:36:57.998Z,75.22
2022-10-06T04:39:24.574Z,75.52
2022-10-06T04:41:51.526Z,75.61
2022-10-06T04:44:22.646Z,75.30
2022-10-06T04:46:50.490Z,74.86
2022-10-06T04:49:20.711Z,74.61
2022-10-06T04:51:50.984Z,74.81
2022-10-06T04:54:19.247Z,75.13
2022-10-06T04:56:47.953Z,74.74
2022-10-06T04:59:16.206Z,74.74
2022-10-06T05:01:44.316Z,74.97
2022-10-06T05:04:16.156Z,75.41
2022-10-06T05:06:42.961Z,75.30
2022-10-06T05:09:14.809Z,75.93
2022-10-06T05:11:49.289Z,76.43
2022-10-06T05:14:18.746Z,76.26
2022-10-06T05:16:48.235Z,76.29
2022-10-06T05:19:15.860Z,75.41
2022-10-06T05:21:42.709Z,76.14
2022-10-06T05:24:12.865Z,76.92
2022-10-06T05:26:39.934Z,77.41
2022-10-06T05:29:10.110Z,76.51
2022-10-06T05:31:38.987Z,76.89
2022-10-06T05:34:06.748Z,76.83
2022-10-06T05:36:34.192Z,76.45
2022-10-06T05:39:02.099Z,76.16
2022-10-06T05:41:37.708Z,76.38
2022-10-06T05:44:06.967Z,76.45
2022-10-06T05:46:35.538Z,76.35
2022-10-06T05:49:05.179Z,76.21
2022-10-06T05:51:34.937Z,76.01
2022-10-06T05:54:09.483Z,76.21
2022-10-06T05:56:37.780Z,76.66
2022-10-06T05:59:05.678Z,77.96
2022-10-06T06:01:41.999Z,78.51
2022-10-06T06:04:41.144Z,77.97
2022-10-06T06:07:09.248Z,78.30
2022-10-06T06:09:36.338Z,78.30
2022-10-06T06:12:04.158Z,77.99
2022-10-06T06:14:59.428Z,78.00
2022-10-06T06:17:32.075Z,77.79
2022-10-06T06:19:59.299Z,77.94
2022-10-06T06:22:26.212Z,77.95
2022-10-06T06:24:52.892Z,78.11
2022-10-06T06:27:20.305Z,78.19
2022-10-06T06:29:47.261Z,78.21
2022-10-06T06:32:13.765Z,78.19
2022-10-06T06:34:41.542Z,78.44
2022-10-06T06:37:15.089Z,78.66
2022-10-06T06:39:44.456Z,78.42
2022-10-06T06:42:11.097Z,78.26
2022-10-06T06:44:37.709Z,78.67
2022-10-06T06:47:35.012Z,78.26
2022-10-06T06:50:05.101Z,79.35
2022-10-06T06:52:32.169Z,79.04
2022-10-06T06:54:59.490Z,79.57
2022-10-06T06:57:27.251Z,79.46
2022-10-06T06:59:56.993Z,79.74
2022-10-06T07:02:26.534Z,80.46
2022-10-06T07:04:53.145Z,80.88
2022-10-06T07:07:21.083Z,80.65
2022-10-06T07:09:47.866Z,81.31
2022-10-06T07:12:16.634Z,80.74
2022-10-06T07:15:07.923Z,80.83
2022-10-06T07:17:57.819Z,80.48
2022-10-06T07:20:43.237Z,80.56
2022-10-06T07:23:37.218Z,81.16
2022-10-06T07:26:07.267Z,81.41
2022-10-06T07:28:33.967Z,81.72
2022-10-06T07:31:01.501Z,82.00
2022-10-06T07:33:32.433Z,82.33
2022-10-06T07:36:02.642Z,81.86
2022-10-06T07:38:30.665Z,82.36
2022-10-06T07:41:18.415Z,82.08
2022-10-06T07:43:47.459Z,82.21
2022-10-06T07:46:16.269Z,82.02
2022-10-06T07:48:51.249Z,81.39
2022-10-06T07:51:19.774Z,81.67
2022-10-06T07:53:50.161Z,81.95
2022-10-06T07:56:42.803Z,81.90
2022-10-06T07:59:09.384Z,82.36
2022-10-06T08:01:35.887Z,81.81
2022-10-06T08:04:06.903Z,81.56
2022-10-06T08:06:34.333Z,80.99
2022-10-06T08:09:01.030Z,81.57
2022-10-06T08:11:27.787Z,81.43
2022-10-06T08:13:54.309Z,81.79
2022-10-06T08:16:23.699Z,82.48
2022-10-06T08:18:55.878Z,83.45
2022-10-06T08:21:25.806Z,82.23
2022-10-06T08:23:53.484Z,80.46
2022-10-06T08:26:21.861Z,81.64
2022-10-06T08:28:50.340Z,80.58
2022-10-06T08:31:19.331Z,80.32
2022-10-06T08:33:46.350Z,80.41
2022-10-06T08:36:16.625Z,77.82
2022-10-06T08:38:43.394Z,78.01
2022-10-06T08:41:27.887Z,79.01
2022-10-06T08:44:04.403Z,77.97
2022-10-06T08:46:43.006Z,77.05
2022-10-06T08:49:19.059Z,76.85
2022-10-06T08:52:14.300Z,77.40
2022-10-06T08:55:05.745Z,76.23
2022-10-06T08:57:32.273Z,78.04
2022-10-06T08:59:59.663Z,77.41
2022-10-06T09:02:33.151Z,77.33
2022-10-06T09:05:02.748Z,77.21
2022-10-06T09:07:42.219Z,77.84
2022-10-06T09:10:28.863Z,76.88
2022-10-06T09:13:22.038Z,75.01
2022-10-06T09:16:19.500Z,74.41
2022-10-06T09:19:14.734Z,74.92
2022-10-06T09:21:54.074Z,74.87
2022-10-06T09:24:33.510Z,74.95
2022-10-06T09:27:11.660Z,74.67
2022-10-06T09:29:38.286Z,73.71
2022-10-06T09:32:06.713Z,75.06
2022-10-06T09:34:42.841Z,74.09
2022-10-06T09:37:13.534Z,74.48
2022-10-06T09:39:45.826Z,74.32
2022-10-06T09:42:22.772Z,71.91
2022-10-06T09:45:17.609Z,71.01
2022-10-06T09:47:45.638Z,70.58
2022-10-06T09:50:21.557Z,70.78
2022-10-06T09:53:03.594Z,69.62
2022-10-06T09:55:38.383Z,73.85
2022-10-06T09:58:27.293Z,73.29
2022-10-06T10:01:00.310Z,71.40
2022-10-06T10:04:15.601Z,72.11
2022-10-06T10:06:40.151Z,71.93
2022-10-06T10:09:16.662Z,72.39
2022-10-06T10:12:04.917Z,72.20
2022-10-06T10:14:38.000Z,71.13
2022-10-06T10:17:14.739Z,70.93
2022-10-06T10:19:43.462Z,69.22
2022-10-06T10:22:27.353Z,71.62
2022-10-06T10:25:13.851Z,71.20
2022-10-06T10:27:55.702Z,71.16
2022-10-06T10:30:23.677Z,70.93
2022-10-06T10:33:09.068Z,71.43
2022-10-06T10:35:51.049Z,71.89
2022-10-06T10:38:23.043Z,72.38
2022-10-06T10:40:54.020Z,71.22
2022-10-06T10:43:24.988Z,71.66
2022-10-06T10:46:10.243Z,71.48
2022-10-06T10:48:58.145Z,71.45
2022-10-06T10:51:47.557Z,72.41
2022-10-06T10:54:28.589Z,72.50
2022-10-06T10:56:55.412Z,71.79
2022-10-06T10:59:43.807Z,71.48
2022-10-06T11:02:16.759Z,72.14
2022-10-06T11:04:48.091Z,70.64
2022-10-06T11:07:26.387Z,69.90
2022-10-06T11:10:19.918Z,70.65
2022-10-06T11:13:14.173Z,69.97
2022-10-06T11:15:46.736Z,70.77
2022-10-06T11:18:35.015Z,71.05
2022-10-06T11:21:16.034Z,68.44
2022-10-06T11:24:01.443Z,69.13
2022-10-06T11:26:28.045Z,68.25
2022-10-06T11:29:21.844Z,69.29
2022-10-06T11:31:57.712Z,69.12
2022-10-06T11:34:24.574Z,67.66
2022-10-06T11:36:57.523Z,68.97
2022-10-06T11:39:47.994Z,68.41
2022-10-06T11:42:23.822Z,68.65
2022-10-06T11:45:13.864Z,69.31
2022-10-06T11:48:01.829Z,68.79
2022-10-06T11:50:36.699Z,67.14
2022-10-06T11:53:14.017Z,67.78
2022-10-06T11:55:40.575Z,69.62
2022-10-06T12:00:58.139Z,67.17
2022-10-06T12:03:33.284Z,69.07
2022-10-06T12:05:59.978Z,67.79
2022-10-06T12:08:39.307Z,67.74
2022-10-06T12:11:43.821Z,67.89
2022-10-06T12:17:47.284Z,68.16
2022-10-06T12:20:52.508Z,68.03
2022-10-06T12:23:43.450Z,67.58
2022-10-06T12:26:25.624Z,66.89
2022-10-06T12:29:16.648Z,67.81
2022-10-06T12:32:11.880Z,67.47
2022-10-06T12:35:07.750Z,66.27
2022-10-06T12:37:54.475Z,65.42
2022-10-06T12:40:57.580Z,66.67
2022-10-06T12:43:24.086Z,67.12
2022-10-06T12:45:56.592Z,66.17
2022-10-06T12:48:46.034Z,65.29
2022-10-06T12:51:12.600Z,64.65
2022-10-06T12:54:09.771Z,66.46
2022-10-06T12:56:41.888Z,64.08
2022-10-06T12:59:24.828Z,64.45
2022-10-06T13:02:07.921Z,64.81
2022-10-06T13:04:45.065Z,66.82
2022-10-06T13:07:11.731Z,65.69
2022-10-06T13:09:38.496Z,64.13
2022-10-06T13:12:26.462Z,64.28
2022-10-06T13:15:13.318Z,62.90
2022-10-06T13:17:43.214Z,64.66
2022-10-06T13:20:30.463Z,66.95
2022-10-06T13:23:00.003Z,66.39
2022-10-06T13:25:34.494Z,65.21
2022-10-06T13:28:04.342Z,66.70
2022-10-06T13:30:34.932Z,65.57
2022-10-06T13:33:04.491Z,65.39
2022-10-06T13:35:31.528Z,64.35
2022-10-06T13:38:01.366Z,65.00
2022-10-06T13:40:44.068Z,64.92
2022-10-06T13:43:19.106Z,65.29
2022-10-06T13:45:48.363Z,64.76
2022-10-06T13:48:20.944Z,64.13
2022-10-06T13:50:49.496Z,64.48
2022-10-06T13:53:44.849Z,65.51
2022-10-06T13:56:33.103Z,65.33
2022-10-06T13:59:34.689Z,64.83
2022-10-06T14:02:15.051Z,65.78
2022-10-06T14:04:41.660Z,63.69
2022-10-06T14:07:13.049Z,64.45
2022-10-06T14:09:42.470Z,65.27
2022-10-06T14:12:15.159Z,65.23
2022-10-06T14:14:50.555Z,64.65
2022-10-06T14:17:23.171Z,65.57
2022-10-06T14:19:51.087Z,65.75
2022-10-06T14:22:38.203Z,65.02
2022-10-06T14:25:12.030Z,65.29
2022-10-06T14:27:38.594Z,65.17
2022-10-06T14:30:05.702Z,64.41
2022-10-06T14:32:32.318Z,64.42
2022-10-06T14:34:58.952Z,64.64
2022-10-06T14:37:25.510Z,64.83
2022-10-06T14:39:54.512Z,64.28
2022-10-06T14:42:24.227Z,63.85
2022-10-06T14:44:50.747Z,65.96
2022-10-06T14:47:17.257Z,65.16
2022-10-06T14:49:45.173Z,63.40
2022-10-06T14:52:12.013Z,63.72
2022-10-06T14:54:39.175Z,64.61
2022-10-06T14:57:05.748Z,64.33
2022-10-06T14:59:32.627Z,64.49
2022-10-06T15:01:59.169Z,64.55
2022-10-06T15:04:27.593Z,65.74
2022-10-06T15:07:12.646Z,64.18
2022-10-06T15:09:39.250Z,64.27
2022-10-06T15:12:05.846Z,63.86
2022-10-06T15:14:33.567Z,63.14
2022-10-06T15:17:00.320Z,63.82
2022-10-06T15:19:27.563Z,64.09
2022-10-06T15:21:54.523Z,63.39
2022-10-06T15:24:21.172Z,64.47
2022-10-06T15:27:06.232Z,64.43
2022-10-06T15:29:34.686Z,64.81
2022-10-06T15:32:02.690Z,64.93
2022-10-06T15:34:31.923Z,65.64
2022-10-06T15:36:59.316Z,66.47
2022-10-06T15:39:28.524Z,66.68
2022-10-06T15:41:55.506Z,67.21
2022-10-06T15:44:22.168Z,65.97
2022-10-06T15:46:51.336Z,66.00
2022-10-06T15:49:22.994Z,66.00
2022-10-06T15:51:59.620Z,66.40
2022-10-06T15:54:29.590Z,67.21
2022-10-06T15:57:01.899Z,67.10
2022-10-06T15:59:31.711Z,68.81
2022-10-06T16:02:01.629Z,68.68
2022-10-06T16:04:36.010Z,68.85
2022-10-06T16:07:03.500Z,68.82
2022-10-06T16:09:33.461Z,69.52
2022-10-06T16:12:04.935Z,70.75
2022-10-06T16:14:32.626Z,71.94
2022-10-06T16:17:00.373Z,71.90
2022-10-06T16:19:29.139Z,71.92
2022-10-06T16:21:58.881Z,72.58
2022-10-06T16:24:26.786Z,72.79
2022-10-06T16:26:54.022Z,73.66
2022-10-06T16:29:21.699Z,74.23
2022-10-06T16:31:48.455Z,74.54
2022-10-06T16:34:15.671Z,75.03
2022-10-06T16:36:42.622Z,75.22
2022-10-06T16:39:20.595Z,75.38
2022-10-06T16:41:47.772Z,75.70
2022-10-06T16:44:14.532Z,75.96
2022-10-06T16:46:41.425Z,76.42
2022-10-06T16:49:09.321Z,76.37
2022-10-06T16:51:38.585Z,76.87
2022-10-06T16:54:07.907Z,77.02
2022-10-06T16:56:37.544Z,77.06
2022-10-06T16:59:07.467Z,77.03
2022-10-06T17:01:36.415Z,77.34
2022-10-06T17:04:17.740Z,77.74
2022-10-06T17:06:46.780Z,77.77
2022-10-06T17:09:16.684Z,77.97
2022-10-06T17:11:47.263Z,77.96
2022-10-06T17:14:14.257Z,77.92
2022-10-06T17:16:44.427Z,77.76
2022-10-06T17:19:12.950Z,77.86
2022-10-06T17:21:46.153Z,78.25
2022-10-06T17:24:14.894Z,77.64
2022-10-06T17:26:43.692Z,77.88
2022-10-06T17:29:19.228Z,77.30
2022-10-06T17:31:47.317Z,77.34
2022-10-06T17:34:21.484Z,77.22
2022-10-06T17:36:51.228Z,77.22
2022-10-06T17:39:20.399Z,77.01
2022-10-06T17:41:49.076Z,76.81
2022-10-06T17:44:22.711Z,76.86
2022-10-06T17:46:52.422Z,76.52
2022-10-06T17:49:24.272Z,77.07
2022-10-06T17:51:53.477Z,77.06
2022-10-06T17:54:22.145Z,77.64
2022-10-06T17:56:51.399Z,77.06
2022-10-06T17:59:22.079Z,76.97
2022-10-06T18:01:51.229Z,77.01
2022-10-06T18:04:18.658Z,76.66
2022-10-06T18:06:47.353Z,77.07
2022-10-06T18:09:15.437Z,76.71
2022-10-06T18:11:44.501Z,76.83
2022-10-06T18:14:16.903Z,76.76
2022-10-06T18:16:45.368Z,76.85
2022-10-06T18:19:17.697Z,76.96
2022-10-06T18:21:46.494Z,76.69
2022-10-06T18:24:18.571Z,76.38
2022-10-06T18:26:48.310Z,76.55
2022-10-06T18:29:19.892Z,76.37
2022-10-06T18:31:49.883Z,76.73
2022-10-06T18:37:05.935Z,76.73
2022-10-06T18:39:33.597Z,76.49
2022-10-06T18:42:03.706Z,76.48
2022-10-06T18:44:49.002Z,76.87
2022-10-06T18:47:34.537Z,76.43
2022-10-06T18:50:01.410Z,76.63
2022-10-06T18:52:28.906Z,76.24
2022-10-06T18:54:55.639Z,76.30
2022-10-06T18:57:27.246Z,76.48
2022-10-06T18:59:55.169Z,77.19
2022-10-06T19:02:22.411Z,77.19
2022-10-06T19:04:49.478Z,77.16
2022-10-06T19:07:16.171Z,76.81
2022-10-06T19:09:47.034Z,77.18
2022-10-06T19:12:14.229Z,76.71
2022-10-06T19:14:47.361Z,76.47
2022-10-06T19:17:15.451Z,76.30
2022-10-06T19:19:48.027Z,77.18
2022-10-06T19:22:14.965Z,76.55
2022-10-06T19:24:44.239Z,77.03
2022-10-06T19:27:16.951Z,76.93
2022-10-06T19:29:48.091Z,76.97
2022-10-06T19:32:17.510Z,76.76
2022-10-06T19:34:45.346Z,76.77
2022-10-06T19:37:12.366Z,76.41
2022-10-06T19:39:43.284Z,76.88
2022-10-06T19:42:32.584Z,76.63
2022-10-06T19:45:00.706Z,75.92
2022-10-06T19:47:28.731Z,76.27
2022-10-06T19:50:00.829Z,75.74
2022-10-06T19:52:29.168Z,75.78
2022-10-06T19:54:55.910Z,75.63
2022-10-06T19:57:22.780Z,75.88
2022-10-06T19:59:50.961Z,75.91
2022-10-06T20:02:17.847Z,75.88
2022-10-06T20:04:45.461Z,75.36
2022-10-06T20:07:12.529Z,76.07
2022-10-06T20:09:39.310Z,75.31
2022-10-06T20:12:06.119Z,75.92
2022-10-06T20:14:32.841Z,76.86
2022-10-06T20:16:59.754Z,76.62
2022-10-06T20:19:26.713Z,75.86
2022-10-06T20:21:53.997Z,75.23
2022-10-06T20:24:23.514Z,75.65
2022-10-06T20:26:51.440Z,75.74
2022-10-06T20:29:20.862Z,75.99
2022-10-06T20:31:50.781Z,75.77
2022-10-06T20:34:22.945Z,76.90
2022-10-06T20:36:54.782Z,75.84
2022-10-06T20:39:42.312Z,75.85
2022-10-06T20:42:14.842Z,75.59
2022-10-06T20:44:43.298Z,75.99
2022-10-06T20:47:10.838Z,76.34
2022-10-06T20:49:37.883Z,76.74
2022-10-06T20:52:06.196Z,76.00
2022-10-06T20:54:35.839Z,75.75
2022-10-06T20:57:06.407Z,76.46
2022-10-06T20:59:36.524Z,76.00
2022-10-06T21:02:05.077Z,76.48
2022-10-06T21:04:32.045Z,76.04
2022-10-06T21:06:58.831Z,76.71
2022-10-06T21:09:28.315Z,76.62
2022-10-06T21:11:56.407Z,75.64
2022-10-06T21:14:23.467Z,75.67
2022-10-06T21:16:51.008Z,76.69
2022-10-06T21:19:19.196Z,76.80
2022-10-06T21:21:52.117Z,76.60
2022-10-06T21:24:19.648Z,76.68
2022-10-06T21:26:46.642Z,76.02
2022-10-06T21:29:15.544Z,75.83
2022-10-06T21:31:43.488Z,75.52
2022-10-06T21:34:10.510Z,75.30
2022-10-06T21:36:37.548Z,77.15
2022-10-06T21:39:05.697Z,76.10
2022-10-06T21:41:40.875Z,76.52
2022-10-06T21:44:13.183Z,75.55
2022-10-06T21:46:40.838Z,75.96
2022-10-06T21:49:11.041Z,76.34
2022-10-06T21:51:38.623Z,76.27
2022-10-06T21:54:05.327Z,75.89
2022-10-06T21:56:33.339Z,75.59
2022-10-06T21:59:00.960Z,77.01
2022-10-06T22:01:30.383Z,76.74
2022-10-06T22:04:00.054Z,76.52
2022-10-06T22:06:28.711Z,76.18
2022-10-06T22:08:56.031Z,76.51
2022-10-06T22:11:28.197Z,76.95
2022-10-06T22:13:57.683Z,77.18
2022-10-06T22:16:27.268Z,76.91
2022-10-06T22:18:54.221Z,76.40
2022-10-06T22:21:22.359Z,75.70
2022-10-06T22:23:56.123Z,75.90
2022-10-06T22:26:23.623Z,75.15
2022-10-06T22:28:52.123Z,75.65
2022-10-06T22:31:24.742Z,76.56
2022-10-06T22:33:58.451Z,75.94
2022-10-06T22:36:26.567Z,75.34
2022-10-06T22:38:53.865Z,75.48
2022-10-06T22:41:21.289Z,76.21
2022-10-06T22:43:47.920Z,76.03
2022-10-06T22:46:14.922Z,75.03
2022-10-06T22:48:41.858Z,75.52
2022-10-06T22:51:08.536Z,75.17
2022-10-06T22:53:35.151Z,75.76
2022-10-06T22:56:03.636Z,74.87
2022-10-06T22:58:30.183Z,75.43
2022-10-06T23:00:56.935Z,75.75
2022-10-06T23:03:24.357Z,76.06
2022-10-06T23:05:58.943Z,75.81
2022-10-06T23:08:31.266Z,76.00
2022-10-06T23:11:10.481Z,76.94
2022-10-06T23:13:37.526Z,76.25
2022-10-06T23:16:09.463Z,76.94
2022-10-06T23:18:37.903Z,75.77
2022-10-06T23:21:04.387Z,75.87
2022-10-06T23:23:31.726Z,75.71
2022-10-06T23:26:06.539Z,76.76
2022-10-06T23:28:33.851Z,75.97
2022-10-06T23:31:00.487Z,75.70
2022-10-06T23:33:30.971Z,76.04
2022-10-06T23:36:04.039Z,75.56
2022-10-06T23:38:30.585Z,76.54
2022-10-06T23:40:57.131Z,76.68
2022-10-06T23:43:23.981Z,76.80
2022-10-06T23:45:50.767Z,76.03
2022-10-06T23:48:17.502Z,76.34
2022-10-06T23:50:54.957Z,76.16
2022-10-06T23:53:21.559Z,76.09
2022-10-06T23:55:48.028Z,76.17
2022-10-06T23:58:14.820Z,76.75
